sensor_id;sensor_type;location;lat;lon;timestamp;P1;durP1;ratioP1;P2;durP2;ratioP2
5077;SDS011;2557;51.390;7.494;2023-01-01T00:01:36;11.30;;;4.90;;
5077;SDS011;2557;51.390;7.494;2023-01-01T00:04:04;14.70;;;6.50;;
5077;SDS011;2557;51.390;7.494;2023-01-01T00:06:32;17.57;;;6.83;;
5077;SDS011;2557;51.390;7.494;2023-01-01T00:08:58;16.03;;;6.80;;
5077;SDS011;2557;51.390;7.494;2023-01-01T00:11:43;10.17;;;6.20;;
5077;SDS011;2557;51.390;7.494;2023-01-01T00:14:09;10.37;;;6.60;;
5077;SDS011;2557;51.390;7.494;2023-01-01T00:16:35;6.67;;;5.40;;
5077;SDS011;2557;51.390;7.494;2023-01-01T00:19:01;8.03;;;5.70;;
5077;SDS011;2557;51.390;7.494;2023-01-01T00:21:27;7.40;;;5.50;;
5077;SDS011;2557;51.390;7.494;2023-01-01T00:23:53;13.00;;;6.03;;
5077;SDS011;2557;51.390;7.494;2023-01-01T00:26:19;6.47;;;5.20;;
5077;SDS011;2557;51.390;7.494;2023-01-01T00:28:45;11.37;;;7.10;;
5077;SDS011;2557;51.390;7.494;2023-01-01T00:31:16;14.73;;;7.30;;
5077;SDS011;2557;51.390;7.494;2023-01-01T00:33:42;12.30;;;6.37;;
5077;SDS011;2557;51.390;7.494;2023-01-01T00:36:09;10.23;;;6.87;;
5077;SDS011;2557;51.390;7.494;2023-01-01T00:38:35;11.63;;;7.03;;
5077;SDS011;2557;51.390;7.494;2023-01-01T00:41:01;9.07;;;5.57;;
5077;SDS011;2557;51.390;7.494;2023-01-01T00:43:27;10.77;;;6.50;;
5077;SDS011;2557;51.390;7.494;2023-01-01T00:45:53;12.70;;;6.10;;
5077;SDS011;2557;51.390;7.494;2023-01-01T00:48:19;8.83;;;7.00;;
5077;SDS011;2557;51.390;7.494;2023-01-01T00:50:46;9.97;;;7.70;;
5077;SDS011;2557;51.390;7.494;2023-01-01T00:53:12;10.73;;;7.40;;
5077;SDS011;2557;51.390;7.494;2023-01-01T00:55:38;12.13;;;7.50;;
5077;SDS011;2557;51.390;7.494;2023-01-01T00:58:05;15.80;;;9.30;;
5077;SDS011;2557;51.390;7.494;2023-01-01T01:00:31;12.90;;;7.03;;
5077;SDS011;2557;51.390;7.494;2023-01-01T01:02:57;12.27;;;7.90;;
5077;SDS011;2557;51.390;7.494;2023-01-01T01:05:23;16.93;;;8.60;;
5077;SDS011;2557;51.390;7.494;2023-01-01T01:07:49;11.30;;;8.37;;
5077;SDS011;2557;51.390;7.494;2023-01-01T01:10:15;16.07;;;8.17;;
5077;SDS011;2557;51.390;7.494;2023-01-01T01:12:41;14.00;;;7.60;;
5077;SDS011;2557;51.390;7.494;2023-01-01T01:15:08;13.50;;;7.10;;
5077;SDS011;2557;51.390;7.494;2023-01-01T01:17:34;14.93;;;7.33;;
5077;SDS011;2557;51.390;7.494;2023-01-01T01:20:01;10.03;;;6.33;;
5077;SDS011;2557;51.390;7.494;2023-01-01T01:22:27;9.27;;;6.73;;
5077;SDS011;2557;51.390;7.494;2023-01-01T01:24:53;13.87;;;6.83;;
5077;SDS011;2557;51.390;7.494;2023-01-01T01:27:19;8.27;;;6.47;;
5077;SDS011;2557;51.390;7.494;2023-01-01T01:29:45;8.63;;;5.73;;
5077;SDS011;2557;51.390;7.494;2023-01-01T01:32:11;12.23;;;7.27;;
5077;SDS011;2557;51.390;7.494;2023-01-01T01:34:37;8.40;;;6.63;;
5077;SDS011;2557;51.390;7.494;2023-01-01T01:37:03;8.00;;;5.03;;
5077;SDS011;2557;51.390;7.494;2023-01-01T01:39:30;10.67;;;6.33;;
5077;SDS011;2557;51.390;7.494;2023-01-01T01:41:56;6.87;;;5.87;;
5077;SDS011;2557;51.390;7.494;2023-01-01T01:47:08;6.70;;;4.73;;
5077;SDS011;2557;51.390;7.494;2023-01-01T01:49:36;5.83;;;4.40;;
5077;SDS011;2557;51.390;7.494;2023-01-01T01:52:02;7.33;;;4.40;;
5077;SDS011;2557;51.390;7.494;2023-01-01T01:54:28;13.07;;;4.37;;
5077;SDS011;2557;51.390;7.494;2023-01-01T01:57:05;3.90;;;3.50;;
5077;SDS011;2557;51.390;7.494;2023-01-01T01:59:34;7.77;;;4.03;;
5077;SDS011;2557;51.390;7.494;2023-01-01T02:02:00;5.33;;;3.80;;
5077;SDS011;2557;51.390;7.494;2023-01-01T02:04:26;4.97;;;3.10;;
5077;SDS011;2557;51.390;7.494;2023-01-01T02:06:53;4.20;;;2.73;;
5077;SDS011;2557;51.390;7.494;2023-01-01T02:09:19;4.73;;;3.67;;
5077;SDS011;2557;51.390;7.494;2023-01-01T02:11:45;5.93;;;3.07;;
5077;SDS011;2557;51.390;7.494;2023-01-01T02:14:11;3.57;;;2.87;;
5077;SDS011;2557;51.390;7.494;2023-01-01T02:21:38;3.27;;;2.83;;
5077;SDS011;2557;51.390;7.494;2023-01-01T02:24:18;4.43;;;2.63;;
5077;SDS011;2557;51.390;7.494;2023-01-01T02:31:44;6.00;;;3.20;;
5077;SDS011;2557;51.390;7.494;2023-01-01T02:34:13;4.73;;;2.80;;
5077;SDS011;2557;51.390;7.494;2023-01-01T02:36:42;3.20;;;2.23;;
5077;SDS011;2557;51.390;7.494;2023-01-01T02:39:09;3.43;;;2.93;;
5077;SDS011;2557;51.390;7.494;2023-01-01T02:41:40;7.83;;;2.40;;
5077;SDS011;2557;51.390;7.494;2023-01-01T02:44:08;2.63;;;2.37;;
5077;SDS011;2557;51.390;7.494;2023-01-01T02:46:35;3.30;;;2.33;;
5077;SDS011;2557;51.390;7.494;2023-01-01T02:49:01;2.63;;;2.43;;
5077;SDS011;2557;51.390;7.494;2023-01-01T03:02:08;2.80;;;2.00;;
5077;SDS011;2557;51.390;7.494;2023-01-01T03:04:42;3.30;;;2.37;;
5077;SDS011;2557;51.390;7.494;2023-01-01T03:07:22;3.43;;;2.03;;
5077;SDS011;2557;51.390;7.494;2023-01-01T03:09:53;2.43;;;1.87;;
5077;SDS011;2557;51.390;7.494;2023-01-01T03:14:51;7.77;;;2.67;;
5077;SDS011;2557;51.390;7.494;2023-01-01T03:19:57;3.17;;;2.13;;
5077;SDS011;2557;51.390;7.494;2023-01-01T03:22:27;7.20;;;3.27;;
5077;SDS011;2557;51.390;7.494;2023-01-01T03:24:55;3.97;;;2.50;;
5077;SDS011;2557;51.390;7.494;2023-01-01T03:27:40;3.83;;;2.60;;
5077;SDS011;2557;51.390;7.494;2023-01-01T03:30:09;2.13;;;1.93;;
5077;SDS011;2557;51.390;7.494;2023-01-01T03:32:37;3.97;;;2.40;;
5077;SDS011;2557;51.390;7.494;2023-01-01T03:35:23;4.43;;;2.73;;
5077;SDS011;2557;51.390;7.494;2023-01-01T03:37:50;4.50;;;2.17;;
5077;SDS011;2557;51.390;7.494;2023-01-01T03:40:17;3.70;;;2.40;;
5077;SDS011;2557;51.390;7.494;2023-01-01T03:42:46;4.03;;;2.27;;
5077;SDS011;2557;51.390;7.494;2023-01-01T03:45:23;6.80;;;2.27;;
5077;SDS011;2557;51.390;7.494;2023-01-01T03:47:49;3.13;;;2.20;;
5077;SDS011;2557;51.390;7.494;2023-01-01T03:50:15;3.40;;;2.23;;
5077;SDS011;2557;51.390;7.494;2023-01-01T03:52:43;5.10;;;2.13;;
5077;SDS011;2557;51.390;7.494;2023-01-01T04:05:09;4.33;;;1.97;;
5077;SDS011;2557;51.390;7.494;2023-01-01T04:07:36;2.43;;;2.23;;
5077;SDS011;2557;51.390;7.494;2023-01-01T04:10:03;8.93;;;2.37;;
5077;SDS011;2557;51.390;7.494;2023-01-01T04:12:41;4.67;;;2.47;;
5077;SDS011;2557;51.390;7.494;2023-01-01T04:15:07;9.40;;;2.80;;
5077;SDS011;2557;51.390;7.494;2023-01-01T04:17:33;8.50;;;2.40;;
5077;SDS011;2557;51.390;7.494;2023-01-01T04:19:59;3.53;;;2.50;;
5077;SDS011;2557;51.390;7.494;2023-01-01T04:22:25;4.70;;;2.33;;
5077;SDS011;2557;51.390;7.494;2023-01-01T04:24:51;5.70;;;1.77;;
5077;SDS011;2557;51.390;7.494;2023-01-01T04:27:17;2.10;;;2.00;;
5077;SDS011;2557;51.390;7.494;2023-01-01T04:29:43;3.87;;;2.40;;
5077;SDS011;2557;51.390;7.494;2023-01-01T04:32:09;3.80;;;2.40;;
5077;SDS011;2557;51.390;7.494;2023-01-01T04:34:35;3.97;;;2.60;;
5077;SDS011;2557;51.390;7.494;2023-01-01T04:37:01;3.40;;;2.07;;
5077;SDS011;2557;51.390;7.494;2023-01-01T04:39:27;5.03;;;2.17;;
5077;SDS011;2557;51.390;7.494;2023-01-01T04:41:53;4.50;;;1.90;;
5077;SDS011;2557;51.390;7.494;2023-01-01T04:44:19;2.93;;;2.47;;
5077;SDS011;2557;51.390;7.494;2023-01-01T04:46:45;4.90;;;2.57;;
5077;SDS011;2557;51.390;7.494;2023-01-01T04:49:11;6.30;;;3.93;;
5077;SDS011;2557;51.390;7.494;2023-01-01T04:51:37;3.17;;;2.30;;
5077;SDS011;2557;51.390;7.494;2023-01-01T04:54:03;7.33;;;2.13;;
5077;SDS011;2557;51.390;7.494;2023-01-01T04:56:29;3.80;;;2.37;;
5077;SDS011;2557;51.390;7.494;2023-01-01T04:58:55;2.33;;;2.13;;
5077;SDS011;2557;51.390;7.494;2023-01-01T05:01:23;4.00;;;2.33;;
5077;SDS011;2557;51.390;7.494;2023-01-01T05:03:49;4.40;;;2.60;;
5077;SDS011;2557;51.390;7.494;2023-01-01T05:06:15;5.07;;;3.03;;
5077;SDS011;2557;51.390;7.494;2023-01-01T05:08:42;2.13;;;1.87;;
5077;SDS011;2557;51.390;7.494;2023-01-01T05:13:35;3.87;;;2.03;;
5077;SDS011;2557;51.390;7.494;2023-01-01T05:16:02;6.20;;;2.93;;
5077;SDS011;2557;51.390;7.494;2023-01-01T05:18:29;2.87;;;2.00;;
5077;SDS011;2557;51.390;7.494;2023-01-01T05:20:59;3.90;;;2.40;;
5077;SDS011;2557;51.390;7.494;2023-01-01T05:23:25;6.63;;;2.10;;
5077;SDS011;2557;51.390;7.494;2023-01-01T05:25:51;3.13;;;1.90;;
5077;SDS011;2557;51.390;7.494;2023-01-01T05:28:17;7.23;;;2.60;;
5077;SDS011;2557;51.390;7.494;2023-01-01T05:30:43;2.43;;;2.23;;
5077;SDS011;2557;51.390;7.494;2023-01-01T05:33:09;5.40;;;3.13;;
5077;SDS011;2557;51.390;7.494;2023-01-01T05:35:36;7.23;;;2.53;;
5077;SDS011;2557;51.390;7.494;2023-01-01T05:38:02;4.10;;;2.30;;
5077;SDS011;2557;51.390;7.494;2023-01-01T05:40:28;5.00;;;1.90;;
5077;SDS011;2557;51.390;7.494;2023-01-01T05:42:55;3.60;;;2.37;;
5077;SDS011;2557;51.390;7.494;2023-01-01T05:45:21;10.30;;;3.30;;
5077;SDS011;2557;51.390;7.494;2023-01-01T05:47:47;3.37;;;2.40;;
5077;SDS011;2557;51.390;7.494;2023-01-01T05:50:13;8.53;;;2.53;;
5077;SDS011;2557;51.390;7.494;2023-01-01T05:52:39;4.73;;;2.40;;
5077;SDS011;2557;51.390;7.494;2023-01-01T05:55:05;2.20;;;1.77;;
5077;SDS011;2557;51.390;7.494;2023-01-01T05:57:31;4.77;;;2.47;;
5077;SDS011;2557;51.390;7.494;2023-01-01T05:59:57;4.80;;;2.30;;
5077;SDS011;2557;51.390;7.494;2023-01-01T06:02:23;5.47;;;2.23;;
5077;SDS011;2557;51.390;7.494;2023-01-01T06:04:49;7.63;;;2.90;;
5077;SDS011;2557;51.390;7.494;2023-01-01T06:07:15;5.83;;;2.70;;
5077;SDS011;2557;51.390;7.494;2023-01-01T06:09:41;5.97;;;2.47;;
5077;SDS011;2557;51.390;7.494;2023-01-01T06:12:07;3.07;;;2.10;;
5077;SDS011;2557;51.390;7.494;2023-01-01T06:14:33;14.70;;;2.60;;
5077;SDS011;2557;51.390;7.494;2023-01-01T06:16:59;3.70;;;2.20;;
5077;SDS011;2557;51.390;7.494;2023-01-01T06:19:25;5.20;;;2.43;;
5077;SDS011;2557;51.390;7.494;2023-01-01T06:21:51;4.90;;;2.17;;
5077;SDS011;2557;51.390;7.494;2023-01-01T06:24:17;2.90;;;2.07;;
5077;SDS011;2557;51.390;7.494;2023-01-01T06:26:43;2.10;;;2.00;;
5077;SDS011;2557;51.390;7.494;2023-01-01T06:29:09;5.60;;;2.30;;
5077;SDS011;2557;51.390;7.494;2023-01-01T06:31:35;6.87;;;2.50;;
5077;SDS011;2557;51.390;7.494;2023-01-01T06:34:01;5.37;;;3.00;;
5077;SDS011;2557;51.390;7.494;2023-01-01T06:36:27;7.00;;;2.40;;
5077;SDS011;2557;51.390;7.494;2023-01-01T06:38:53;4.50;;;2.87;;
5077;SDS011;2557;51.390;7.494;2023-01-01T06:41:21;4.07;;;1.90;;
5077;SDS011;2557;51.390;7.494;2023-01-01T06:43:47;3.57;;;2.27;;
5077;SDS011;2557;51.390;7.494;2023-01-01T06:46:15;5.20;;;2.17;;
5077;SDS011;2557;51.390;7.494;2023-01-01T06:48:41;4.40;;;3.10;;
5077;SDS011;2557;51.390;7.494;2023-01-01T06:51:08;2.33;;;2.10;;
5077;SDS011;2557;51.390;7.494;2023-01-01T06:53:35;2.00;;;1.90;;
5077;SDS011;2557;51.390;7.494;2023-01-01T06:56:01;2.50;;;2.30;;
5077;SDS011;2557;51.390;7.494;2023-01-01T06:58:27;4.30;;;2.43;;
5077;SDS011;2557;51.390;7.494;2023-01-01T07:00:53;6.40;;;2.07;;
5077;SDS011;2557;51.390;7.494;2023-01-01T07:03:19;5.20;;;2.27;;
5077;SDS011;2557;51.390;7.494;2023-01-01T07:05:45;2.70;;;2.27;;
5077;SDS011;2557;51.390;7.494;2023-01-01T07:08:11;6.30;;;2.53;;
5077;SDS011;2557;51.390;7.494;2023-01-01T07:10:37;4.93;;;2.43;;
5077;SDS011;2557;51.390;7.494;2023-01-01T07:13:03;3.60;;;2.20;;
5077;SDS011;2557;51.390;7.494;2023-01-01T07:15:29;8.30;;;3.63;;
5077;SDS011;2557;51.390;7.494;2023-01-01T07:17:55;5.43;;;2.40;;
5077;SDS011;2557;51.390;7.494;2023-01-01T07:20:21;2.70;;;2.50;;
5077;SDS011;2557;51.390;7.494;2023-01-01T07:22:47;6.40;;;2.50;;
5077;SDS011;2557;51.390;7.494;2023-01-01T07:25:13;3.93;;;2.80;;
5077;SDS011;2557;51.390;7.494;2023-01-01T07:27:40;2.70;;;2.50;;
5077;SDS011;2557;51.390;7.494;2023-01-01T07:30:06;4.80;;;2.80;;
5077;SDS011;2557;51.390;7.494;2023-01-01T07:32:32;6.03;;;2.80;;
5077;SDS011;2557;51.390;7.494;2023-01-01T07:34:58;3.50;;;2.47;;
5077;SDS011;2557;51.390;7.494;2023-01-01T07:37:24;4.50;;;2.57;;
5077;SDS011;2557;51.390;7.494;2023-01-01T07:39:50;4.50;;;2.20;;
5077;SDS011;2557;51.390;7.494;2023-01-01T07:42:17;12.67;;;2.57;;
5077;SDS011;2557;51.390;7.494;2023-01-01T07:44:43;3.83;;;2.57;;
5077;SDS011;2557;51.390;7.494;2023-01-01T07:47:20;5.10;;;2.60;;
5077;SDS011;2557;51.390;7.494;2023-01-01T07:49:46;5.70;;;3.00;;
5077;SDS011;2557;51.390;7.494;2023-01-01T07:52:13;4.73;;;2.43;;
5077;SDS011;2557;51.390;7.494;2023-01-01T07:54:39;2.37;;;2.10;;
5077;SDS011;2557;51.390;7.494;2023-01-01T07:57:05;3.40;;;3.10;;
5077;SDS011;2557;51.390;7.494;2023-01-01T07:59:32;3.73;;;2.70;;
5077;SDS011;2557;51.390;7.494;2023-01-01T08:01:58;3.47;;;2.40;;
5077;SDS011;2557;51.390;7.494;2023-01-01T08:04:24;7.13;;;3.07;;
5077;SDS011;2557;51.390;7.494;2023-01-01T08:06:51;4.43;;;2.60;;
5077;SDS011;2557;51.390;7.494;2023-01-01T08:09:18;10.00;;;3.13;;
5077;SDS011;2557;51.390;7.494;2023-01-01T08:11:44;3.60;;;2.37;;
5077;SDS011;2557;51.390;7.494;2023-01-01T08:14:10;9.00;;;2.80;;
5077;SDS011;2557;51.390;7.494;2023-01-01T08:16:36;4.47;;;2.40;;
5077;SDS011;2557;51.390;7.494;2023-01-01T08:19:02;4.00;;;2.63;;
5077;SDS011;2557;51.390;7.494;2023-01-01T08:21:29;4.90;;;3.00;;
5077;SDS011;2557;51.390;7.494;2023-01-01T08:23:55;5.47;;;2.13;;
5077;SDS011;2557;51.390;7.494;2023-01-01T08:26:31;2.50;;;2.30;;
5077;SDS011;2557;51.390;7.494;2023-01-01T08:28:57;6.87;;;3.07;;
5077;SDS011;2557;51.390;7.494;2023-01-01T08:31:23;7.80;;;2.47;;
5077;SDS011;2557;51.390;7.494;2023-01-01T08:33:49;5.90;;;2.20;;
5077;SDS011;2557;51.390;7.494;2023-01-01T08:36:15;5.43;;;2.60;;
5077;SDS011;2557;51.390;7.494;2023-01-01T08:38:42;8.37;;;3.03;;
5077;SDS011;2557;51.390;7.494;2023-01-01T08:41:08;5.90;;;2.43;;
5077;SDS011;2557;51.390;7.494;2023-01-01T08:43:34;4.20;;;3.13;;
5077;SDS011;2557;51.390;7.494;2023-01-01T08:46:00;5.83;;;2.57;;
5077;SDS011;2557;51.390;7.494;2023-01-01T08:48:26;4.67;;;3.23;;
5077;SDS011;2557;51.390;7.494;2023-01-01T08:50:55;3.23;;;2.13;;
5077;SDS011;2557;51.390;7.494;2023-01-01T08:53:24;5.03;;;2.30;;
5077;SDS011;2557;51.390;7.494;2023-01-01T08:56:03;7.43;;;2.63;;
5077;SDS011;2557;51.390;7.494;2023-01-01T08:58:30;3.50;;;2.83;;
5077;SDS011;2557;51.390;7.494;2023-01-01T09:00:56;5.53;;;2.73;;
5077;SDS011;2557;51.390;7.494;2023-01-01T09:03:23;6.80;;;2.97;;
5077;SDS011;2557;51.390;7.494;2023-01-01T09:05:49;3.33;;;2.83;;
5077;SDS011;2557;51.390;7.494;2023-01-01T09:08:15;11.03;;;2.90;;
5077;SDS011;2557;51.390;7.494;2023-01-01T09:10:41;3.03;;;2.47;;
5077;SDS011;2557;51.390;7.494;2023-01-01T09:13:08;4.80;;;2.80;;
5077;SDS011;2557;51.390;7.494;2023-01-01T09:15:34;5.30;;;2.80;;
5077;SDS011;2557;51.390;7.494;2023-01-01T09:18:00;5.23;;;2.63;;
5077;SDS011;2557;51.390;7.494;2023-01-01T09:20:26;5.00;;;3.03;;
5077;SDS011;2557;51.390;7.494;2023-01-01T09:22:52;7.00;;;3.93;;
5077;SDS011;2557;51.390;7.494;2023-01-01T09:25:18;6.17;;;3.10;;
5077;SDS011;2557;51.390;7.494;2023-01-01T09:27:44;4.57;;;3.17;;
5077;SDS011;2557;51.390;7.494;2023-01-01T09:30:10;4.70;;;2.80;;
5077;SDS011;2557;51.390;7.494;2023-01-01T09:32:36;3.97;;;2.80;;
5077;SDS011;2557;51.390;7.494;2023-01-01T09:35:02;3.60;;;2.60;;
5077;SDS011;2557;51.390;7.494;2023-01-01T09:37:29;6.00;;;3.10;;
5077;SDS011;2557;51.390;7.494;2023-01-01T09:39:55;5.00;;;2.50;;
5077;SDS011;2557;51.390;7.494;2023-01-01T09:42:43;6.17;;;2.97;;
5077;SDS011;2557;51.390;7.494;2023-01-01T09:45:20;4.20;;;2.47;;
5077;SDS011;2557;51.390;7.494;2023-01-01T09:47:48;10.97;;;3.10;;
5077;SDS011;2557;51.390;7.494;2023-01-01T09:50:23;9.53;;;4.10;;
5077;SDS011;2557;51.390;7.494;2023-01-01T09:52:53;3.50;;;2.53;;
5077;SDS011;2557;51.390;7.494;2023-01-01T09:55:22;3.73;;;2.00;;
5077;SDS011;2557;51.390;7.494;2023-01-01T09:57:49;3.63;;;2.90;;
5077;SDS011;2557;51.390;7.494;2023-01-01T10:00:16;3.33;;;2.63;;
5077;SDS011;2557;51.390;7.494;2023-01-01T10:02:47;5.03;;;2.70;;
5077;SDS011;2557;51.390;7.494;2023-01-01T10:07:53;2.57;;;2.37;;
5077;SDS011;2557;51.390;7.494;2023-01-01T10:10:27;6.00;;;2.60;;
5077;SDS011;2557;51.390;7.494;2023-01-01T10:15:32;4.30;;;2.40;;
5077;SDS011;2557;51.390;7.494;2023-01-01T10:18:02;3.90;;;2.53;;
5077;SDS011;2557;51.390;7.494;2023-01-01T10:20:31;5.40;;;3.37;;
5077;SDS011;2557;51.390;7.494;2023-01-01T10:25:36;3.93;;;2.10;;
5077;SDS011;2557;51.390;7.494;2023-01-01T10:28:06;7.33;;;2.70;;
5077;SDS011;2557;51.390;7.494;2023-01-01T10:30:36;8.77;;;3.00;;
5077;SDS011;2557;51.390;7.494;2023-01-01T10:33:04;4.90;;;2.53;;
5077;SDS011;2557;51.390;7.494;2023-01-01T10:35:34;4.97;;;2.47;;
5077;SDS011;2557;51.390;7.494;2023-01-01T10:38:00;7.27;;;2.63;;
5077;SDS011;2557;51.390;7.494;2023-01-01T10:40:28;3.00;;;2.57;;
5077;SDS011;2557;51.390;7.494;2023-01-01T10:42:55;2.97;;;2.10;;
5077;SDS011;2557;51.390;7.494;2023-01-01T10:45:31;8.03;;;3.80;;
5077;SDS011;2557;51.390;7.494;2023-01-01T10:48:18;3.57;;;3.23;;
5077;SDS011;2557;51.390;7.494;2023-01-01T10:55:50;4.17;;;2.70;;
5077;SDS011;2557;51.390;7.494;2023-01-01T10:58:28;6.00;;;3.23;;
5077;SDS011;2557;51.390;7.494;2023-01-01T11:00:58;2.40;;;2.10;;
5077;SDS011;2557;51.390;7.494;2023-01-01T11:03:24;7.13;;;2.50;;
5077;SDS011;2557;51.390;7.494;2023-01-01T11:06:00;3.30;;;2.30;;
5077;SDS011;2557;51.390;7.494;2023-01-01T11:08:27;2.43;;;2.27;;
5077;SDS011;2557;51.390;7.494;2023-01-01T11:10:54;5.73;;;2.37;;
5077;SDS011;2557;51.390;7.494;2023-01-01T11:13:21;5.43;;;2.77;;
5077;SDS011;2557;51.390;7.494;2023-01-01T11:15:47;6.17;;;3.00;;
5077;SDS011;2557;51.390;7.494;2023-01-01T11:18:14;5.23;;;2.50;;
5077;SDS011;2557;51.390;7.494;2023-01-01T11:20:40;6.70;;;2.40;;
5077;SDS011;2557;51.390;7.494;2023-01-01T11:23:26;2.57;;;2.30;;
5077;SDS011;2557;51.390;7.494;2023-01-01T11:28:26;11.57;;;2.63;;
5077;SDS011;2557;51.390;7.494;2023-01-01T11:31:05;3.90;;;2.67;;
5077;SDS011;2557;51.390;7.494;2023-01-01T11:33:35;5.07;;;2.60;;
5077;SDS011;2557;51.390;7.494;2023-01-01T11:36:03;10.60;;;4.37;;
5077;SDS011;2557;51.390;7.494;2023-01-01T11:38:29;8.03;;;2.70;;
5077;SDS011;2557;51.390;7.494;2023-01-01T11:41:00;5.57;;;2.87;;
5077;SDS011;2557;51.390;7.494;2023-01-01T11:43:27;3.77;;;2.00;;
5077;SDS011;2557;51.390;7.494;2023-01-01T11:45:53;7.80;;;3.00;;
5077;SDS011;2557;51.390;7.494;2023-01-01T11:48:22;4.90;;;2.43;;
5077;SDS011;2557;51.390;7.494;2023-01-01T11:51:27;6.90;;;2.93;;
5077;SDS011;2557;51.390;7.494;2023-01-01T11:53:37;3.37;;;2.93;;
5077;SDS011;2557;51.390;7.494;2023-01-01T12:03:50;3.77;;;3.10;;
5077;SDS011;2557;51.390;7.494;2023-01-01T12:06:22;9.20;;;2.73;;
5077;SDS011;2557;51.390;7.494;2023-01-01T12:08:51;7.60;;;2.57;;
5077;SDS011;2557;51.390;7.494;2023-01-01T12:11:35;5.10;;;2.33;;
5077;SDS011;2557;51.390;7.494;2023-01-01T12:14:12;8.63;;;3.30;;
5077;SDS011;2557;51.390;7.494;2023-01-01T12:16:47;7.20;;;3.10;;
5077;SDS011;2557;51.390;7.494;2023-01-01T12:19:25;5.93;;;2.70;;
5077;SDS011;2557;51.390;7.494;2023-01-01T12:21:53;3.30;;;2.17;;
5077;SDS011;2557;51.390;7.494;2023-01-01T12:24:22;2.90;;;2.40;;
5077;SDS011;2557;51.390;7.494;2023-01-01T12:26:56;3.00;;;2.40;;
5077;SDS011;2557;51.390;7.494;2023-01-01T12:32:29;3.27;;;2.57;;
5077;SDS011;2557;51.390;7.494;2023-01-01T12:34:59;12.77;;;2.67;;
5077;SDS011;2557;51.390;7.494;2023-01-01T12:42:59;11.63;;;3.10;;
5077;SDS011;2557;51.390;7.494;2023-01-01T12:48:01;4.43;;;3.00;;
5077;SDS011;2557;51.390;7.494;2023-01-01T12:50:50;8.33;;;3.70;;
5077;SDS011;2557;51.390;7.494;2023-01-01T12:53:24;8.63;;;2.47;;
5077;SDS011;2557;51.390;7.494;2023-01-01T12:56:12;7.80;;;2.40;;
5077;SDS011;2557;51.390;7.494;2023-01-01T13:01:35;4.53;;;3.50;;
5077;SDS011;2557;51.390;7.494;2023-01-01T13:09:05;9.67;;;2.50;;
5077;SDS011;2557;51.390;7.494;2023-01-01T13:11:32;4.13;;;2.60;;
5077;SDS011;2557;51.390;7.494;2023-01-01T13:13:59;4.60;;;2.40;;
5077;SDS011;2557;51.390;7.494;2023-01-01T13:16:35;3.63;;;2.20;;
5077;SDS011;2557;51.390;7.494;2023-01-01T13:19:02;6.20;;;2.57;;
5077;SDS011;2557;51.390;7.494;2023-01-01T13:21:28;4.17;;;2.23;;
5077;SDS011;2557;51.390;7.494;2023-01-01T13:24:17;3.90;;;2.20;;
5077;SDS011;2557;51.390;7.494;2023-01-01T13:26:42;7.27;;;3.50;;
5077;SDS011;2557;51.390;7.494;2023-01-01T13:36:47;4.27;;;2.13;;
5077;SDS011;2557;51.390;7.494;2023-01-01T13:39:49;8.33;;;3.00;;
5077;SDS011;2557;51.390;7.494;2023-01-01T13:41:59;7.13;;;3.30;;
5077;SDS011;2557;51.390;7.494;2023-01-01T13:44:25;4.80;;;2.37;;
5077;SDS011;2557;51.390;7.494;2023-01-01T14:00:41;3.20;;;2.23;;
5077;SDS011;2557;51.390;7.494;2023-01-01T14:03:17;2.60;;;2.20;;
5077;SDS011;2557;51.390;7.494;2023-01-01T14:05:47;7.93;;;2.67;;
5077;SDS011;2557;51.390;7.494;2023-01-01T14:08:30;7.00;;;3.50;;
5077;SDS011;2557;51.390;7.494;2023-01-01T14:10:57;8.00;;;2.50;;
5077;SDS011;2557;51.390;7.494;2023-01-01T14:13:25;6.40;;;2.50;;
5077;SDS011;2557;51.390;7.494;2023-01-01T14:15:57;4.43;;;2.70;;
5077;SDS011;2557;51.390;7.494;2023-01-01T14:18:27;5.10;;;3.23;;
5077;SDS011;2557;51.390;7.494;2023-01-01T14:20:55;4.57;;;2.40;;
5077;SDS011;2557;51.390;7.494;2023-01-01T14:23:29;7.63;;;2.60;;
5077;SDS011;2557;51.390;7.494;2023-01-01T14:25:55;4.53;;;2.77;;
5077;SDS011;2557;51.390;7.494;2023-01-01T14:28:25;7.23;;;2.90;;
5077;SDS011;2557;51.390;7.494;2023-01-01T14:30:52;4.07;;;2.63;;
5077;SDS011;2557;51.390;7.494;2023-01-01T14:33:24;4.47;;;2.70;;
5077;SDS011;2557;51.390;7.494;2023-01-01T14:35:51;2.33;;;2.13;;
5077;SDS011;2557;51.390;7.494;2023-01-01T14:38:24;6.73;;;2.90;;
5077;SDS011;2557;51.390;7.494;2023-01-01T14:43:36;7.73;;;3.30;;
5077;SDS011;2557;51.390;7.494;2023-01-01T14:46:03;6.67;;;2.60;;
5077;SDS011;2557;51.390;7.494;2023-01-01T14:48:30;6.13;;;2.60;;
5077;SDS011;2557;51.390;7.494;2023-01-01T14:50:56;3.80;;;2.57;;
5077;SDS011;2557;51.390;7.494;2023-01-01T14:53:24;7.60;;;2.30;;
5077;SDS011;2557;51.390;7.494;2023-01-01T14:55:54;4.50;;;2.87;;
5077;SDS011;2557;51.390;7.494;2023-01-01T14:58:24;6.53;;;3.30;;
5077;SDS011;2557;51.390;7.494;2023-01-01T15:00:51;5.97;;;3.10;;
5077;SDS011;2557;51.390;7.494;2023-01-01T15:03:18;5.30;;;3.10;;
5077;SDS011;2557;51.390;7.494;2023-01-01T15:05:45;6.80;;;2.83;;
5077;SDS011;2557;51.390;7.494;2023-01-01T15:08:16;4.03;;;3.40;;
5077;SDS011;2557;51.390;7.494;2023-01-01T15:10:43;11.03;;;3.97;;
5077;SDS011;2557;51.390;7.494;2023-01-01T15:13:11;7.37;;;3.30;;
5077;SDS011;2557;51.390;7.494;2023-01-01T15:15:42;5.63;;;2.70;;
5077;SDS011;2557;51.390;7.494;2023-01-01T15:20:53;6.57;;;2.50;;
5077;SDS011;2557;51.390;7.494;2023-01-01T15:23:20;3.13;;;2.30;;
5077;SDS011;2557;51.390;7.494;2023-01-01T15:25:46;7.43;;;3.03;;
5077;SDS011;2557;51.390;7.494;2023-01-01T15:28:19;9.07;;;2.40;;
5077;SDS011;2557;51.390;7.494;2023-01-01T15:30:50;4.57;;;3.30;;
5077;SDS011;2557;51.390;7.494;2023-01-01T15:33:17;5.23;;;3.27;;
5077;SDS011;2557;51.390;7.494;2023-01-01T15:35:47;6.57;;;3.00;;
5077;SDS011;2557;51.390;7.494;2023-01-01T15:38:19;3.30;;;2.40;;
5077;SDS011;2557;51.390;7.494;2023-01-01T15:40:47;9.27;;;3.97;;
5077;SDS011;2557;51.390;7.494;2023-01-01T15:43:15;6.47;;;3.07;;
5077;SDS011;2557;51.390;7.494;2023-01-01T15:45:50;7.47;;;4.40;;
5077;SDS011;2557;51.390;7.494;2023-01-01T15:48:20;5.33;;;2.90;;
5077;SDS011;2557;51.390;7.494;2023-01-01T15:53:19;3.77;;;2.30;;
5077;SDS011;2557;51.390;7.494;2023-01-01T15:55:54;2.23;;;2.00;;
5077;SDS011;2557;51.390;7.494;2023-01-01T15:58:34;5.53;;;2.27;;
5077;SDS011;2557;51.390;7.494;2023-01-01T16:01:02;3.43;;;2.70;;
5077;SDS011;2557;51.390;7.494;2023-01-01T16:03:29;5.27;;;2.13;;
5077;SDS011;2557;51.390;7.494;2023-01-01T16:05:56;5.33;;;3.17;;
5077;SDS011;2557;51.390;7.494;2023-01-01T16:08:23;9.63;;;4.40;;
5077;SDS011;2557;51.390;7.494;2023-01-01T16:10:50;2.80;;;2.10;;
5077;SDS011;2557;51.390;7.494;2023-01-01T16:13:16;4.40;;;2.73;;
5077;SDS011;2557;51.390;7.494;2023-01-01T16:15:58;3.30;;;2.37;;
5077;SDS011;2557;51.390;7.494;2023-01-01T16:18:32;3.97;;;2.33;;
5077;SDS011;2557;51.390;7.494;2023-01-01T16:20:58;5.17;;;2.13;;
5077;SDS011;2557;51.390;7.494;2023-01-01T16:23:24;5.77;;;2.20;;
5077;SDS011;2557;51.390;7.494;2023-01-01T16:25:50;3.10;;;2.50;;
5077;SDS011;2557;51.390;7.494;2023-01-01T16:28:16;9.67;;;4.10;;
5077;SDS011;2557;51.390;7.494;2023-01-01T16:30:42;13.33;;;4.40;;
5077;SDS011;2557;51.390;7.494;2023-01-01T16:33:14;15.30;;;7.90;;
5077;SDS011;2557;51.390;7.494;2023-01-01T16:35:40;10.83;;;7.20;;
5077;SDS011;2557;51.390;7.494;2023-01-01T16:38:06;8.20;;;3.67;;
5077;SDS011;2557;51.390;7.494;2023-01-01T16:40:33;7.50;;;4.80;;
5077;SDS011;2557;51.390;7.494;2023-01-01T16:42:59;3.57;;;1.90;;
5077;SDS011;2557;51.390;7.494;2023-01-01T16:45:25;2.63;;;2.43;;
5077;SDS011;2557;51.390;7.494;2023-01-01T16:47:51;3.10;;;1.90;;
5077;SDS011;2557;51.390;7.494;2023-01-01T16:50:18;7.07;;;4.33;;
5077;SDS011;2557;51.390;7.494;2023-01-01T16:52:44;6.90;;;4.63;;
5077;SDS011;2557;51.390;7.494;2023-01-01T16:55:10;3.13;;;2.90;;
5077;SDS011;2557;51.390;7.494;2023-01-01T16:57:37;7.53;;;3.53;;
5077;SDS011;2557;51.390;7.494;2023-01-01T17:00:04;13.33;;;6.63;;
5077;SDS011;2557;51.390;7.494;2023-01-01T17:02:30;3.30;;;3.00;;
5077;SDS011;2557;51.390;7.494;2023-01-01T17:04:56;3.60;;;3.30;;
5077;SDS011;2557;51.390;7.494;2023-01-01T17:07:22;3.37;;;3.07;;
5077;SDS011;2557;51.390;7.494;2023-01-01T17:09:48;2.80;;;2.60;;
5077;SDS011;2557;51.390;7.494;2023-01-01T17:12:14;3.67;;;2.60;;
5077;SDS011;2557;51.390;7.494;2023-01-01T17:14:40;5.53;;;3.10;;